createdAt,value
2017-11-27T00:01:27.310Z,1.43
2017-11-27T00:03:56.310Z,1.60
2017-11-27T00:06:23.829Z,1.37
2017-11-27T00:08:51.354Z,1.67
2017-11-27T00:11:19.617Z,2.03
2017-11-27T00:13:47.886Z,1.37
2017-11-27T00:16:15.471Z,2.10
2017-11-27T00:18:43.051Z,1.80
2017-11-27T00:21:10.548Z,1.97
2017-11-27T00:23:38.058Z,2.30
2017-11-27T00:26:05.554Z,1.80
2017-11-27T00:28:33.051Z,2.30
2017-11-27T00:31:01.319Z,1.77
2017-11-27T00:33:29.594Z,2.90
2017-11-27T00:35:57.853Z,1.77
2017-11-27T00:38:26.166Z,1.77
2017-11-27T00:40:53.674Z,2.03
2017-11-27T00:43:21.364Z,1.97
2017-11-27T00:45:49.652Z,1.40
2017-11-27T00:48:17.903Z,1.90
2017-11-27T00:50:45.404Z,1.97
2017-11-27T00:53:13.676Z,1.60
2017-11-27T00:55:41.166Z,2.17
2017-11-27T00:58:08.651Z,1.80
2017-11-27T01:00:36.937Z,1.53
2017-11-27T01:03:05.200Z,2.00
2017-11-27T01:05:32.682Z,1.33
2017-11-27T01:08:01.956Z,1.87
2017-11-27T01:10:29.540Z,1.80
2017-11-27T01:12:57.793Z,1.73
2017-11-27T01:15:26.060Z,2.10
2017-11-27T01:17:54.513Z,1.70
2017-11-27T01:20:22.014Z,2.57
2017-11-27T01:22:51.288Z,2.70
2017-11-27T01:25:18.779Z,2.23
2017-11-27T01:27:47.042Z,1.97
2017-11-27T01:30:14.528Z,1.53
2017-11-27T01:32:43.304Z,1.90
2017-11-27T01:35:11.567Z,1.70
2017-11-27T01:37:39.842Z,2.80
2017-11-27T01:40:08.091Z,1.47
2017-11-27T01:42:35.572Z,2.20
2017-11-27T01:45:03.140Z,1.70
2017-11-27T01:47:31.417Z,1.53
2017-11-27T01:49:58.950Z,1.53
2017-11-27T01:52:26.427Z,1.73
2017-11-27T01:54:54.695Z,1.87
2017-11-27T01:57:22.179Z,1.50
2017-11-27T01:59:49.676Z,1.97
2017-11-27T02:02:17.183Z,1.53
2017-11-27T02:04:45.436Z,2.37
2017-11-27T02:07:12.928Z,2.67
2017-11-27T02:09:40.433Z,2.60
2017-11-27T02:12:08.766Z,2.20
2017-11-27T02:14:36.257Z,2.23
2017-11-27T02:17:04.385Z,2.40
2017-11-27T02:19:31.883Z,2.67
2017-11-27T02:21:59.368Z,2.30
2017-11-27T02:24:26.871Z,2.00
2017-11-27T02:26:54.359Z,2.07
2017-11-27T02:29:22.663Z,2.33
2017-11-27T02:31:50.156Z,2.67
2017-11-27T02:34:18.075Z,2.60
2017-11-27T02:36:45.568Z,2.40
2017-11-27T02:39:13.822Z,1.43
2017-11-27T02:41:41.307Z,2.00
2017-11-27T02:44:08.832Z,1.70
2017-11-27T02:46:37.099Z,1.67
2017-11-27T02:49:04.589Z,3.27
2017-11-27T02:51:32.862Z,2.63
2017-11-27T02:54:01.115Z,2.50
2017-11-27T02:56:28.626Z,2.20
2017-11-27T02:58:56.115Z,2.40
2017-11-27T03:01:23.589Z,2.47
2017-11-27T03:03:51.101Z,3.60
2017-11-27T03:06:19.321Z,3.30
2017-11-27T03:08:46.829Z,4.50
2017-11-27T03:11:14.325Z,3.60
2017-11-27T03:13:42.732Z,3.00
2017-11-27T03:16:10.992Z,2.90
2017-11-27T03:18:38.484Z,3.10
2017-11-27T03:21:06.016Z,3.13
2017-11-27T03:23:33.524Z,3.30
2017-11-27T03:26:01.695Z,3.90
2017-11-27T03:28:29.177Z,2.90
2017-11-27T03:30:56.664Z,2.80
2017-11-27T03:33:24.932Z,3.70
2017-11-27T03:35:52.415Z,3.73
2017-11-27T03:38:19.934Z,3.50
2017-11-27T03:40:47.414Z,3.03
2017-11-27T03:43:14.940Z,3.80
2017-11-27T03:45:42.413Z,3.13
2017-11-27T03:48:09.897Z,4.67
2017-11-27T03:50:38.115Z,3.90
2017-11-27T03:53:05.595Z,4.30
2017-11-27T03:55:33.104Z,4.27
2017-11-27T03:58:00.629Z,4.30
2017-11-27T04:00:28.205Z,4.73
2017-11-27T04:02:56.469Z,3.90
2017-11-27T04:05:24.722Z,4.90
2017-11-27T04:07:52.728Z,4.37
2017-11-27T04:10:20.448Z,4.80
2017-11-27T04:12:47.947Z,5.63
2017-11-27T04:15:16.207Z,4.33
2017-11-27T04:17:44.474Z,4.83
2017-11-27T04:20:11.972Z,4.67
2017-11-27T04:22:39.471Z,5.03
2017-11-27T04:25:06.972Z,5.33
2017-11-27T04:27:35.224Z,8.33
2017-11-27T04:30:03.502Z,5.33
2017-11-27T04:32:30.988Z,5.40
2017-11-27T04:34:58.475Z,5.93
2017-11-27T04:37:25.970Z,6.17
2017-11-27T04:39:54.244Z,5.87
2017-11-27T04:42:22.525Z,6.37
2017-11-27T04:44:50.277Z,5.73
2017-11-27T04:47:17.773Z,6.00
2017-11-27T04:49:45.580Z,6.70
2017-11-27T04:52:13.060Z,6.40
2017-11-27T04:54:41.337Z,7.20
2017-11-27T04:57:08.822Z,6.30
2017-11-27T04:59:36.324Z,7.30
2017-11-27T05:02:03.870Z,10.33
2017-11-27T05:04:31.363Z,7.77
2017-11-27T05:06:58.879Z,8.50
2017-11-27T05:09:26.410Z,10.13
2017-11-27T05:11:54.940Z,9.83
2017-11-27T05:14:22.431Z,9.23
2017-11-27T05:16:50.712Z,9.50
2017-11-27T05:19:18.966Z,8.83
2017-11-27T05:21:46.473Z,9.40
2017-11-27T05:24:13.989Z,10.03
2017-11-27T05:26:41.538Z,9.83
2017-11-27T05:29:09.038Z,10.17
2017-11-27T05:31:36.564Z,10.17
2017-11-27T05:34:04.060Z,11.07
2017-11-27T05:36:31.552Z,11.93
2017-11-27T05:38:59.093Z,11.90
2017-11-27T05:41:27.588Z,11.90
2017-11-27T05:43:55.141Z,11.40
2017-11-27T05:46:22.623Z,11.80
2017-11-27T05:48:50.123Z,9.33
2017-11-27T05:51:17.626Z,11.73
2017-11-27T05:53:45.112Z,11.63
2017-11-27T05:56:13.558Z,10.60
2017-11-27T05:58:41.051Z,11.07
2017-11-27T06:01:09.315Z,12.13
2017-11-27T06:03:36.816Z,12.60
2017-11-27T06:06:04.311Z,12.63
2017-11-27T06:08:31.808Z,13.43
2017-11-27T06:11:00.064Z,13.70
2017-11-27T06:13:27.548Z,11.80
2017-11-27T06:15:55.830Z,15.43
2017-11-27T06:18:23.345Z,13.67
2017-11-27T06:20:50.830Z,15.37
2017-11-27T06:23:19.104Z,14.77
2017-11-27T06:25:47.380Z,14.03
2017-11-27T06:28:15.647Z,18.40
2017-11-27T06:30:43.146Z,16.63
2017-11-27T06:33:10.636Z,15.77
2017-11-27T06:35:38.134Z,17.53
2017-11-27T06:38:06.399Z,17.70
2017-11-27T06:40:34.677Z,18.93
2017-11-27T06:43:02.947Z,17.23
2017-11-27T06:45:31.229Z,17.07
2017-11-27T06:47:59.491Z,17.30
2017-11-27T06:50:26.990Z,17.77
2017-11-27T06:52:54.480Z,18.20
2017-11-27T06:55:21.972Z,16.60
2017-11-27T06:57:50.355Z,17.50
2017-11-27T07:00:18.774Z,19.03
2017-11-27T07:02:46.283Z,17.43
2017-11-27T07:05:13.859Z,16.83
2017-11-27T07:07:42.155Z,15.33
2017-11-27T07:10:09.665Z,15.90
2017-11-27T07:12:38.667Z,14.30
2017-11-27T07:15:06.187Z,15.77
2017-11-27T07:17:33.686Z,15.83
2017-11-27T07:20:01.183Z,17.50
2017-11-27T07:22:28.687Z,16.00
2017-11-27T07:24:56.169Z,15.87
2017-11-27T07:27:24.429Z,15.33
2017-11-27T07:29:51.964Z,15.40
2017-11-27T07:32:19.536Z,14.87
2017-11-27T07:34:47.042Z,16.47
2017-11-27T07:37:20.266Z,13.40
2017-11-27T07:39:51.054Z,14.03
2017-11-27T07:42:19.787Z,13.10
2017-11-27T07:44:47.272Z,12.63
2017-11-27T07:47:14.736Z,12.03
2017-11-27T07:49:42.204Z,13.90
2017-11-27T07:52:10.476Z,11.43
2017-11-27T07:54:38.791Z,12.80
2017-11-27T07:57:06.400Z,11.00
2017-11-27T07:59:33.978Z,10.70
2017-11-27T08:02:02.255Z,11.43
2017-11-27T08:04:30.081Z,10.93
2017-11-27T08:06:57.570Z,11.53
2017-11-27T08:09:25.856Z,12.77
2017-11-27T08:11:53.369Z,12.50
2017-11-27T08:14:20.880Z,11.97
2017-11-27T08:16:49.244Z,12.10
2017-11-27T08:19:17.517Z,13.90
2017-11-27T08:21:45.779Z,13.43
2017-11-27T08:24:14.052Z,12.90
2017-11-27T08:26:41.824Z,13.17
2017-11-27T08:29:09.348Z,12.67
2017-11-27T08:31:36.852Z,13.47
2017-11-27T08:34:04.344Z,14.17
2017-11-27T08:36:31.853Z,13.80
2017-11-27T08:39:00.403Z,15.77
2017-11-27T08:41:27.894Z,14.27
2017-11-27T08:43:56.852Z,14.30
2017-11-27T08:46:24.366Z,14.50
2017-11-27T08:48:51.878Z,15.20
2017-11-27T08:51:19.382Z,13.87
2017-11-27T08:53:46.913Z,14.27
2017-11-27T08:56:15.179Z,13.30
2017-11-27T08:58:42.694Z,13.90
2017-11-27T09:01:10.204Z,13.30
2017-11-27T09:03:37.716Z,12.63
2017-11-27T09:06:05.215Z,12.57
2017-11-27T09:08:32.731Z,11.00
2017-11-27T09:11:00.237Z,13.30
2017-11-27T09:13:28.524Z,12.33
2017-11-27T09:15:56.800Z,10.93
2017-11-27T09:18:25.074Z,11.10
2017-11-27T09:20:53.336Z,9.93
2017-11-27T09:23:21.610Z,8.17
2017-11-27T09:25:49.111Z,8.23
2017-11-27T09:28:16.600Z,9.07
2017-11-27T09:30:44.085Z,8.60
2017-11-27T09:33:11.597Z,8.90
2017-11-27T09:35:39.079Z,8.50
2017-11-27T09:38:07.171Z,8.53
2017-11-27T09:40:34.680Z,9.40
2017-11-27T09:43:02.913Z,8.87
2017-11-27T09:45:31.185Z,8.77
2017-11-27T09:47:59.461Z,8.07
2017-11-27T09:50:27.706Z,6.00
2017-11-27T09:52:55.173Z,5.10
2017-11-27T09:55:22.637Z,5.40
2017-11-27T09:57:50.122Z,4.83
2017-11-27T10:00:19.259Z,5.43
2017-11-27T10:02:49.179Z,5.43
2017-11-27T10:05:16.672Z,5.67
2017-11-27T10:07:44.939Z,6.20
2017-11-27T10:10:12.415Z,4.53
2017-11-27T10:12:40.670Z,4.63
2017-11-27T10:15:09.064Z,4.37
2017-11-27T10:17:37.308Z,3.57
2017-11-27T10:20:04.795Z,2.33
2017-11-27T10:22:33.050Z,2.43
2017-11-27T10:25:00.529Z,1.53
2017-11-27T10:27:28.022Z,1.67
2017-11-27T10:29:55.478Z,1.77
2017-11-27T10:32:22.958Z,2.00
2017-11-27T10:34:50.422Z,2.17
2017-11-27T10:37:17.887Z,2.67
2017-11-27T10:39:45.357Z,3.77
2017-11-27T10:42:12.828Z,3.03
2017-11-27T10:44:41.113Z,4.40
2017-11-27T10:47:09.364Z,3.70
2017-11-27T10:49:37.625Z,4.20
2017-11-27T10:52:05.111Z,3.83
2017-11-27T10:54:33.361Z,4.20
2017-11-27T10:57:00.865Z,4.23
2017-11-27T10:59:28.360Z,4.73
2017-11-27T11:01:55.896Z,2.30
2017-11-27T11:04:23.374Z,2.00
2017-11-27T11:06:50.844Z,2.30
2017-11-27T11:09:18.328Z,2.07
2017-11-27T11:11:46.620Z,2.20
2017-11-27T11:14:14.112Z,2.87
2017-11-27T11:16:41.662Z,3.10
2017-11-27T11:19:09.133Z,1.80
2017-11-27T11:21:36.599Z,2.77
2017-11-27T11:24:04.077Z,2.47
2017-11-27T11:26:31.562Z,2.07
2017-11-27T11:29:00.354Z,2.67
2017-11-27T11:31:28.623Z,2.93
2017-11-27T11:33:56.894Z,2.87
2017-11-27T11:36:24.407Z,2.10
2017-11-27T11:38:51.902Z,2.40
2017-11-27T11:41:20.181Z,3.53
2017-11-27T11:43:47.712Z,3.17
2017-11-27T11:46:15.251Z,4.20
2017-11-27T11:48:42.729Z,4.53
2017-11-27T11:51:10.220Z,3.27
2017-11-27T11:53:37.732Z,1.60
2017-11-27T11:56:05.615Z,1.73
2017-11-27T11:58:33.102Z,1.50
2017-11-27T12:01:01.355Z,1.33
2017-11-27T12:03:28.846Z,0.90
2017-11-27T12:05:56.335Z,1.17
2017-11-27T12:08:23.815Z,0.90
2017-11-27T12:10:51.314Z,0.90
2017-11-27T12:13:18.824Z,1.33
2017-11-27T12:15:46.319Z,1.03
2017-11-27T12:18:13.807Z,1.53
2017-11-27T12:20:41.370Z,1.40
2017-11-27T12:23:08.847Z,1.40
2017-11-27T12:25:36.327Z,1.87
2017-11-27T12:28:03.830Z,1.43
2017-11-27T12:30:31.331Z,1.67
2017-11-27T12:32:58.819Z,1.70
2017-11-27T12:35:27.082Z,2.10
2017-11-27T12:37:55.467Z,1.87
2017-11-27T12:40:24.089Z,2.50
2017-11-27T12:42:51.598Z,1.60
2017-11-27T12:45:19.868Z,2.37
2017-11-27T12:47:48.133Z,2.70
2017-11-27T12:50:15.646Z,2.30
2017-11-27T12:52:43.141Z,2.27
2017-11-27T12:55:10.659Z,2.47
2017-11-27T12:57:38.900Z,3.07
2017-11-27T13:00:07.173Z,3.70
2017-11-27T13:02:35.450Z,2.70
2017-11-27T13:05:03.715Z,2.43
2017-11-27T13:07:31.992Z,2.80
2017-11-27T13:10:00.288Z,3.03
2017-11-27T13:12:27.829Z,2.47
2017-11-27T13:14:59.511Z,3.40
2017-11-27T13:17:27.757Z,2.80
2017-11-27T13:19:55.380Z,3.10
2017-11-27T13:22:23.677Z,3.10
2017-11-27T13:24:51.191Z,2.43
2017-11-27T13:27:18.705Z,2.10
2017-11-27T13:29:46.203Z,3.13
2017-11-27T13:32:13.787Z,3.10
2017-11-27T13:34:41.342Z,2.37
2017-11-27T13:37:08.833Z,2.10
2017-11-27T13:39:36.316Z,2.60
2017-11-27T13:42:03.821Z,2.80
2017-11-27T13:44:31.607Z,2.20
2017-11-27T13:46:59.105Z,2.67
2017-11-27T13:49:27.360Z,3.03
2017-11-27T13:51:55.789Z,2.20
2017-11-27T13:54:23.286Z,2.33
2017-11-27T13:56:50.772Z,1.60
2017-11-27T13:59:19.057Z,1.80
2017-11-27T14:01:46.599Z,2.00
2017-11-27T14:04:14.855Z,3.00
2017-11-27T14:06:42.369Z,3.10
2017-11-27T14:09:09.855Z,1.77
2017-11-27T14:11:38.137Z,2.07
2017-11-27T14:14:05.676Z,1.60
2017-11-27T14:16:33.159Z,1.90
2017-11-27T14:19:00.682Z,1.87
2017-11-27T14:21:28.992Z,1.60
2017-11-27T14:23:56.676Z,1.73
2017-11-27T14:26:24.927Z,1.37
2017-11-27T14:28:52.417Z,1.60
2017-11-27T14:31:20.725Z,1.30
2017-11-27T14:33:48.218Z,2.40
2017-11-27T14:36:15.744Z,1.53
2017-11-27T14:38:43.229Z,1.87
2017-11-27T14:41:10.714Z,1.97
2017-11-27T14:43:38.970Z,1.53
2017-11-27T14:46:06.489Z,1.80
2017-11-27T14:48:33.981Z,1.67
2017-11-27T14:51:01.489Z,1.70
2017-11-27T14:53:29.009Z,1.90
2017-11-27T14:55:56.612Z,1.50
2017-11-27T14:58:24.201Z,1.20
2017-11-27T15:00:52.469Z,1.53
2017-11-27T15:03:19.974Z,1.40
2017-11-27T15:05:48.266Z,1.40
2017-11-27T15:08:15.785Z,1.97
2017-11-27T15:10:43.374Z,2.30
2017-11-27T15:13:11.640Z,2.07
2017-11-27T15:15:39.900Z,1.67
2017-11-27T15:18:08.316Z,1.63
2017-11-27T15:20:35.822Z,2.10
2017-11-27T15:23:03.328Z,2.70
2017-11-27T15:25:31.585Z,2.30
2017-11-27T15:27:59.876Z,4.17
2017-11-27T15:30:27.387Z,1.90
2017-11-27T15:32:54.885Z,1.90
2017-11-27T15:35:22.405Z,1.93
2017-11-27T15:37:49.907Z,1.90
2017-11-27T15:40:18.139Z,2.30
2017-11-27T15:42:45.631Z,1.90
2017-11-27T15:45:13.140Z,2.17
2017-11-27T15:47:40.635Z,1.67
2017-11-27T15:50:08.881Z,2.30
2017-11-27T15:52:36.392Z,2.07
2017-11-27T15:55:03.894Z,2.10
2017-11-27T15:57:32.163Z,2.13
2017-11-27T15:59:59.700Z,2.63
2017-11-27T16:02:27.220Z,2.17
2017-11-27T16:04:55.482Z,2.50
2017-11-27T16:07:22.964Z,2.20
2017-11-27T16:09:51.231Z,2.63
2017-11-27T16:12:19.495Z,2.83
2017-11-27T16:14:46.992Z,3.17
2017-11-27T16:17:14.491Z,2.10
2017-11-27T16:19:41.975Z,1.97
2017-11-27T16:22:09.464Z,1.53
2017-11-27T16:24:37.010Z,2.00
2017-11-27T16:27:05.251Z,1.70
2017-11-27T16:29:32.763Z,1.60
2017-11-27T16:32:00.237Z,0.90
2017-11-27T16:34:27.746Z,1.50
2017-11-27T16:36:56.023Z,1.20
2017-11-27T16:39:24.286Z,1.43
2017-11-27T16:41:52.554Z,1.30
2017-11-27T16:44:20.252Z,1.40
2017-11-27T16:46:47.752Z,1.67
2017-11-27T16:49:15.247Z,1.37
2017-11-27T16:51:43.500Z,1.40
2017-11-27T16:54:10.978Z,1.53
2017-11-27T16:56:39.213Z,1.57
2017-11-27T16:59:06.698Z,2.03
2017-11-27T17:01:34.206Z,2.10
2017-11-27T17:04:01.689Z,2.50
2017-11-27T17:06:29.174Z,2.60
2017-11-27T17:08:57.453Z,2.47
2017-11-27T17:11:25.717Z,3.33
2017-11-27T17:13:53.211Z,2.80
2017-11-27T17:16:20.729Z,2.57
2017-11-27T17:18:48.210Z,3.97
2017-11-27T17:21:16.504Z,3.03
2017-11-27T17:23:44.021Z,3.30
2017-11-27T17:26:11.525Z,3.43
2017-11-27T17:28:39.060Z,3.73
2017-11-27T17:31:07.342Z,4.57
2017-11-27T17:33:34.843Z,3.83
2017-11-27T17:36:03.144Z,2.90
2017-11-27T17:38:30.655Z,4.57
2017-11-27T17:40:58.191Z,4.17
2017-11-27T17:43:26.461Z,3.90
2017-11-27T17:45:54.014Z,3.63
2017-11-27T17:48:22.287Z,3.13
2017-11-27T17:50:50.844Z,3.53
2017-11-27T17:53:18.336Z,2.77
2017-11-27T17:55:46.592Z,3.20
2017-11-27T17:58:14.090Z,2.77
2017-11-27T18:00:41.757Z,2.63
2017-11-27T18:03:09.242Z,2.60
2017-11-27T18:05:36.731Z,1.77
2017-11-27T18:08:04.991Z,4.20
2017-11-27T18:10:32.544Z,2.00
2017-11-27T18:13:01.833Z,1.13
2017-11-27T18:15:30.098Z,1.30
2017-11-27T18:17:57.598Z,1.30
2017-11-27T18:20:25.101Z,1.43
2017-11-27T18:22:52.582Z,2.13
2017-11-27T18:25:20.074Z,1.43
2017-11-27T18:27:47.628Z,1.37
2017-11-27T18:30:15.896Z,1.30
2017-11-27T18:32:43.387Z,2.10
2017-11-27T18:35:10.880Z,1.30
2017-11-27T18:37:38.400Z,1.60
2017-11-27T18:40:05.919Z,1.53
2017-11-27T18:42:33.421Z,1.10
2017-11-27T18:45:03.051Z,1.00
2017-11-27T18:47:31.654Z,0.90
2017-11-27T18:49:59.276Z,1.00
2017-11-27T18:52:26.869Z,1.23
2017-11-27T18:54:54.396Z,1.70
2017-11-27T18:57:21.881Z,1.17
2017-11-27T18:59:49.389Z,1.40
2017-11-27T19:02:17.659Z,1.20
2017-11-27T19:04:45.896Z,1.23
2017-11-27T19:07:13.386Z,1.30
2017-11-27T19:09:41.651Z,1.37
2017-11-27T19:12:09.310Z,1.17
2017-11-27T19:14:36.813Z,1.23
2017-11-27T19:17:04.304Z,1.07
2017-11-27T19:19:32.422Z,1.70
2017-11-27T19:22:01.321Z,1.37
2017-11-27T19:24:28.846Z,1.40
2017-11-27T19:26:56.354Z,1.40
2017-11-27T19:29:25.784Z,1.63
2017-11-27T19:31:53.334Z,1.40
2017-11-27T19:34:21.366Z,2.40
2017-11-27T19:36:48.872Z,1.60
2017-11-27T19:39:16.367Z,1.70
2017-11-27T19:41:45.560Z,1.83
2017-11-27T19:44:13.820Z,1.77
2017-11-27T19:46:41.317Z,1.13
2017-11-27T19:49:12.520Z,1.10
2017-11-27T19:51:41.705Z,0.80
2017-11-27T19:54:09.212Z,0.80
2017-11-27T19:56:36.707Z,1.47
2017-11-27T19:59:04.203Z,0.70
2017-11-27T20:01:32.474Z,0.97
2017-11-27T20:04:02.513Z,2.97
2017-11-27T20:06:30.781Z,1.40
2017-11-27T20:08:59.049Z,2.20
2017-11-27T20:11:27.307Z,2.10
2017-11-27T20:13:54.812Z,2.37
2017-11-27T20:16:23.071Z,2.17
2017-11-27T20:18:51.328Z,2.10
2017-11-27T20:21:19.616Z,1.97
2017-11-27T20:23:47.896Z,1.10
2017-11-27T20:26:16.159Z,1.43
2017-11-27T20:28:44.428Z,1.40
2017-11-27T20:31:12.012Z,1.23
2017-11-27T20:33:39.519Z,1.63
2017-11-27T20:36:07.033Z,1.83
2017-11-27T20:38:34.544Z,1.70
2017-11-27T20:41:02.078Z,1.47
2017-11-27T20:43:29.583Z,1.23
2017-11-27T20:45:57.693Z,1.63
2017-11-27T20:48:26.023Z,2.40
2017-11-27T20:50:53.534Z,2.33
2017-11-27T20:53:21.048Z,1.67
2017-11-27T20:55:49.309Z,1.17
2017-11-27T20:58:16.903Z,1.00
2017-11-27T21:00:44.428Z,1.53
2017-11-27T21:03:12.037Z,1.23
2017-11-27T21:05:39.802Z,2.33
2017-11-27T21:08:07.285Z,1.50
2017-11-27T21:10:34.782Z,2.50
2017-11-27T21:13:03.056Z,2.10
2017-11-27T21:15:32.357Z,1.37
2017-11-27T21:18:00.709Z,2.60
2017-11-27T21:20:28.228Z,1.70
2017-11-27T21:22:55.735Z,2.20
2017-11-27T21:25:23.222Z,2.60
2017-11-27T21:27:51.536Z,2.20
2017-11-27T21:30:19.056Z,2.40
2017-11-27T21:32:46.551Z,2.50
2017-11-27T21:35:14.072Z,2.20
2017-11-27T21:37:42.461Z,3.60
2017-11-27T21:40:11.332Z,1.83
2017-11-27T21:42:39.611Z,2.60
2017-11-27T21:45:07.869Z,2.00
2017-11-27T21:47:36.142Z,2.03
2017-11-27T21:50:03.646Z,1.47
2017-11-27T21:52:31.185Z,2.27
2017-11-27T21:54:59.442Z,2.17
2017-11-27T21:57:26.955Z,2.90
2017-11-27T21:59:54.444Z,1.97
2017-11-27T22:02:22.747Z,2.23
2017-11-27T22:04:50.243Z,2.23
2017-11-27T22:07:17.747Z,2.47
2017-11-27T22:09:46.002Z,1.80
2017-11-27T22:12:13.488Z,1.83
2017-11-27T22:14:41.811Z,1.97
2017-11-27T22:17:10.005Z,2.30
2017-11-27T22:19:37.767Z,1.63
2017-11-27T22:22:05.300Z,2.10
2017-11-27T22:24:32.778Z,1.90
2017-11-27T22:27:00.298Z,1.63
2017-11-27T22:32:01.942Z,1.70
2017-11-27T22:34:30.243Z,1.83
2017-11-27T22:36:57.744Z,1.80
2017-11-27T22:39:25.237Z,1.70
2017-11-27T22:41:53.527Z,1.60
2017-11-27T22:44:21.036Z,1.53
2017-11-27T22:46:48.523Z,1.70
2017-11-27T22:49:17.083Z,1.90
2017-11-27T22:51:44.568Z,1.70
2017-11-27T22:54:12.830Z,1.80
2017-11-27T22:56:40.319Z,2.23
2017-11-27T22:59:07.792Z,2.13
2017-11-27T23:01:35.272Z,2.50
2017-11-27T23:04:02.802Z,1.97
2017-11-27T23:06:30.331Z,2.03
2017-11-27T23:08:58.585Z,1.63
2017-11-27T23:11:26.105Z,2.00
2017-11-27T23:13:53.612Z,2.00
2017-11-27T23:16:21.877Z,2.00
2017-11-27T23:18:49.718Z,2.30
2017-11-27T23:21:17.263Z,1.80
2017-11-27T23:23:44.795Z,1.37
2017-11-27T23:26:12.300Z,2.03
2017-11-27T23:28:39.799Z,1.57
2017-11-27T23:31:08.083Z,2.43
2017-11-27T23:33:35.589Z,2.00
2017-11-27T23:36:03.096Z,1.67
2017-11-27T23:38:30.989Z,1.60
2017-11-27T23:40:58.507Z,2.60
2017-11-27T23:43:26.880Z,1.73
2017-11-27T23:45:55.836Z,1.40
2017-11-27T23:48:23.344Z,2.20
2017-11-27T23:50:51.904Z,1.30
2017-11-27T23:53:19.419Z,1.90
2017-11-27T23:55:46.930Z,2.17
2017-11-27T23:58:15.217Z,2.40
